createdAt,value
2022-07-29T00:01:04.615Z,13.40
2022-07-29T00:03:31.846Z,13.40
2022-07-29T00:05:59.227Z,13.40
2022-07-29T00:08:27.763Z,13.40
2022-07-29T00:10:54.964Z,13.50
2022-07-29T00:13:32.128Z,13.50
2022-07-29T00:16:03.707Z,13.50
2022-07-29T00:18:32.719Z,13.60
2022-07-29T00:21:00.014Z,13.60
2022-07-29T00:23:27.184Z,13.50
2022-07-29T00:25:54.132Z,13.50
2022-07-29T00:28:21.655Z,13.40
2022-07-29T00:30:48.888Z,13.30
2022-07-29T00:33:15.861Z,13.30
2022-07-29T00:35:45.612Z,13.10
2022-07-29T00:38:18.187Z,13.10
2022-07-29T00:40:45.932Z,13.10
2022-07-29T00:43:14.679Z,13.10
2022-07-29T00:45:43.135Z,13.10
2022-07-29T00:48:10.372Z,13.10
2022-07-29T00:50:38.050Z,13.10
2022-07-29T00:53:07.034Z,13.10
2022-07-29T00:55:34.594Z,13.00
2022-07-29T00:58:01.949Z,12.90
2022-07-29T01:00:30.089Z,12.80
2022-07-29T01:02:57.356Z,12.80
2022-07-29T01:05:49.631Z,12.80
2022-07-29T01:08:16.345Z,12.80
2022-07-29T01:10:46.655Z,12.90
2022-07-29T01:13:16.778Z,13.00
2022-07-29T01:15:52.468Z,13.30
2022-07-29T01:18:28.187Z,13.60
2022-07-29T01:21:21.883Z,13.80
2022-07-29T01:24:13.899Z,14.00
2022-07-29T01:27:12.670Z,14.20
2022-07-29T01:29:55.020Z,14.40
2022-07-29T01:32:30.028Z,14.60
2022-07-29T01:35:06.538Z,14.60
2022-07-29T01:37:40.652Z,14.70
2022-07-29T01:40:20.732Z,14.80
2022-07-29T01:42:52.548Z,14.80
2022-07-29T01:45:44.518Z,14.80
2022-07-29T01:48:14.629Z,14.80
2022-07-29T01:50:49.330Z,14.80
2022-07-29T01:53:27.969Z,14.90
2022-07-29T01:56:05.701Z,15.00
2022-07-29T01:58:33.982Z,15.00
2022-07-29T02:01:02.694Z,15.00
2022-07-29T02:03:32.699Z,14.90
2022-07-29T02:06:02.489Z,14.80
2022-07-29T02:08:31.314Z,14.80
2022-07-29T02:11:00.490Z,14.90
2022-07-29T02:13:29.966Z,15.00
2022-07-29T02:15:59.419Z,15.00
2022-07-29T02:18:29.424Z,15.00
2022-07-29T02:20:57.878Z,15.10
2022-07-29T02:23:25.949Z,15.00
2022-07-29T02:25:55.954Z,15.00
2022-07-29T02:28:28.234Z,14.90
2022-07-29T02:31:01.556Z,14.70
2022-07-29T02:33:30.611Z,14.70
2022-07-29T02:35:59.409Z,14.60
2022-07-29T02:38:47.403Z,14.50
2022-07-29T02:41:36.381Z,14.50
2022-07-29T02:44:10.167Z,14.40
2022-07-29T02:46:39.018Z,14.30
2022-07-29T02:49:24.748Z,14.20
2022-07-29T02:52:19.089Z,14.20
2022-07-29T02:54:57.067Z,14.10
2022-07-29T02:57:34.793Z,14.10
2022-07-29T03:00:07.580Z,14.10
2022-07-29T03:02:40.625Z,14.00
2022-07-29T03:05:11.005Z,14.00
2022-07-29T03:07:39.583Z,14.00
2022-07-29T03:10:13.369Z,13.90
2022-07-29T03:12:42.374Z,13.70
2022-07-29T03:15:10.476Z,13.60
2022-07-29T03:17:38.748Z,13.60
2022-07-29T03:20:07.618Z,13.60
2022-07-29T03:22:39.433Z,13.70
2022-07-29T03:25:14.312Z,13.80
2022-07-29T03:27:41.635Z,13.80
2022-07-29T03:30:09.644Z,13.90
2022-07-29T03:32:37.143Z,13.80
2022-07-29T03:35:06.073Z,13.90
2022-07-29T03:37:34.409Z,13.90
2022-07-29T03:40:05.918Z,13.90
2022-07-29T03:42:34.724Z,14.00
2022-07-29T03:45:07.432Z,14.10
2022-07-29T03:47:50.958Z,14.20
2022-07-29T03:50:22.469Z,14.20
2022-07-29T03:52:50.121Z,14.30
2022-07-29T03:55:17.706Z,14.30
2022-07-29T03:57:46.638Z,14.40
2022-07-29T04:00:16.275Z,14.50
2022-07-29T04:02:49.744Z,14.50
2022-07-29T04:05:19.346Z,14.60
2022-07-29T04:07:49.885Z,14.70
2022-07-29T04:10:18.070Z,14.70
2022-07-29T04:12:59.369Z,14.80
2022-07-29T04:15:26.820Z,14.90
2022-07-29T04:17:59.603Z,14.90
2022-07-29T04:20:26.775Z,15.00
2022-07-29T04:22:53.765Z,15.10
2022-07-29T04:25:20.980Z,15.20
2022-07-29T04:28:03.191Z,15.20
2022-07-29T04:30:32.089Z,15.30
2022-07-29T04:32:59.652Z,15.40
2022-07-29T04:35:26.590Z,15.50
2022-07-29T04:37:53.859Z,15.60
2022-07-29T04:40:21.182Z,15.70
2022-07-29T04:42:48.531Z,15.70
2022-07-29T04:45:16.627Z,15.90
2022-07-29T04:47:50.195Z,15.90
2022-07-29T04:50:17.620Z,16.20
2022-07-29T04:52:44.576Z,16.30
2022-07-29T04:55:12.122Z,16.40
2022-07-29T04:57:39.112Z,16.50
2022-07-29T05:00:07.566Z,16.50
2022-07-29T05:02:34.785Z,16.70
2022-07-29T05:05:01.821Z,16.80
2022-07-29T05:07:28.761Z,16.90
2022-07-29T05:09:57.875Z,16.90
2022-07-29T05:12:25.664Z,17.00
2022-07-29T05:14:52.780Z,17.00
2022-07-29T05:17:19.923Z,17.10
2022-07-29T05:19:46.869Z,17.20
2022-07-29T05:22:13.763Z,17.30
2022-07-29T05:24:41.735Z,17.30
2022-07-29T05:27:08.699Z,17.50
2022-07-29T05:29:44.964Z,17.60
2022-07-29T05:32:13.998Z,17.70
2022-07-29T05:34:50.782Z,17.80
2022-07-29T05:37:20.589Z,18.00
2022-07-29T05:39:50.536Z,18.20
2022-07-29T05:42:23.813Z,18.40
2022-07-29T05:44:50.715Z,18.60
2022-07-29T05:47:17.776Z,18.90
2022-07-29T05:49:45.063Z,19.20
2022-07-29T05:52:12.020Z,19.30
2022-07-29T05:54:39.102Z,19.40
2022-07-29T05:57:06.580Z,19.40
2022-07-29T05:59:39.362Z,19.40
2022-07-29T06:02:06.470Z,19.50
2022-07-29T06:04:34.561Z,19.70
2022-07-29T06:07:02.657Z,19.70
2022-07-29T06:09:29.722Z,19.60
2022-07-29T06:11:58.279Z,19.80
2022-07-29T06:14:25.763Z,20.10
2022-07-29T06:16:52.785Z,20.20
2022-07-29T06:19:20.115Z,20.20
2022-07-29T06:21:47.812Z,20.50
2022-07-29T06:24:16.182Z,20.80
2022-07-29T06:26:43.814Z,21.00
2022-07-29T06:29:11.745Z,21.10
2022-07-29T06:31:39.157Z,20.90
2022-07-29T06:34:06.475Z,20.90
2022-07-29T06:36:38.408Z,21.10
2022-07-29T06:39:08.316Z,21.20
2022-07-29T06:41:35.668Z,21.50
2022-07-29T06:44:03.978Z,21.70
2022-07-29T06:46:31.317Z,21.90
2022-07-29T06:48:58.506Z,22.10
2022-07-29T06:51:26.088Z,22.20
2022-07-29T06:54:00.262Z,22.30
2022-07-29T06:56:38.103Z,22.60
2022-07-29T06:59:07.742Z,22.80
2022-07-29T07:01:35.906Z,22.80
2022-07-29T07:04:03.282Z,22.90
2022-07-29T07:06:30.240Z,22.70
2022-07-29T07:08:57.465Z,22.70
2022-07-29T07:11:24.639Z,22.90
2022-07-29T07:13:51.617Z,23.40
2022-07-29T07:16:18.842Z,23.70
2022-07-29T07:18:46.433Z,24.00
2022-07-29T07:21:19.283Z,24.00
2022-07-29T07:23:47.429Z,24.00
2022-07-29T07:26:15.300Z,24.00
2022-07-29T07:28:42.276Z,24.10
2022-07-29T07:31:10.414Z,24.30
2022-07-29T07:33:37.441Z,24.30
2022-07-29T07:36:04.442Z,24.60
2022-07-29T07:38:31.568Z,24.70
2022-07-29T07:40:59.638Z,24.70
2022-07-29T07:43:26.743Z,24.80
2022-07-29T07:45:53.907Z,24.80
2022-07-29T07:48:20.994Z,25.00
2022-07-29T07:50:47.993Z,25.40
2022-07-29T07:53:15.322Z,25.60
2022-07-29T07:58:30.723Z,25.70
2022-07-29T08:00:57.821Z,25.60
2022-07-29T08:03:24.901Z,25.70
2022-07-29T08:05:52.831Z,25.80
2022-07-29T08:08:19.908Z,26.00
2022-07-29T08:10:53.162Z,26.00
2022-07-29T08:13:22.836Z,26.00
2022-07-29T08:15:58.719Z,26.00
2022-07-29T08:18:29.706Z,26.00
2022-07-29T08:20:56.869Z,26.10
2022-07-29T08:23:24.133Z,26.10
2022-07-29T08:25:52.602Z,26.10
2022-07-29T08:28:25.705Z,26.00
2022-07-29T08:30:55.788Z,26.00
2022-07-29T08:33:22.745Z,26.20
2022-07-29T08:35:51.255Z,26.20
2022-07-29T08:38:18.389Z,26.10
2022-07-29T08:40:46.841Z,26.20
2022-07-29T08:43:14.143Z,26.20
2022-07-29T08:45:48.479Z,26.00
2022-07-29T08:48:18.746Z,25.80
2022-07-29T08:50:47.778Z,26.00
2022-07-29T08:53:17.912Z,26.10
2022-07-29T08:55:46.618Z,25.80
2022-07-29T08:58:15.745Z,25.80
2022-07-29T09:00:46.757Z,26.00
2022-07-29T09:03:20.316Z,25.90
2022-07-29T09:05:48.682Z,25.40
2022-07-29T09:08:17.561Z,25.20
2022-07-29T09:10:45.617Z,25.00
2022-07-29T09:13:12.656Z,24.90
2022-07-29T09:15:39.711Z,25.30
2022-07-29T09:18:06.873Z,25.60
2022-07-29T09:20:52.576Z,25.40
2022-07-29T09:23:23.005Z,25.30
2022-07-29T09:25:51.532Z,25.20
2022-07-29T09:28:19.133Z,25.50
2022-07-29T09:30:54.470Z,25.70
2022-07-29T09:33:25.638Z,26.00
2022-07-29T09:36:06.075Z,26.20
2022-07-29T09:38:37.952Z,25.80
2022-07-29T09:41:06.886Z,25.40
2022-07-29T09:43:35.171Z,25.50
2022-07-29T09:46:13.199Z,26.20
2022-07-29T09:48:40.497Z,26.60
2022-07-29T09:51:38.332Z,26.80
2022-07-29T09:54:24.405Z,26.70
2022-07-29T09:57:25.211Z,26.20
2022-07-29T10:00:20.768Z,25.70
2022-07-29T10:03:04.055Z,25.60
2022-07-29T10:06:05.882Z,25.40
2022-07-29T10:08:47.958Z,25.10
2022-07-29T10:11:48.183Z,24.90
2022-07-29T10:14:34.089Z,24.90
2022-07-29T10:17:35.822Z,24.90
2022-07-29T10:20:24.935Z,25.20
2022-07-29T10:23:07.119Z,25.40
2022-07-29T10:25:49.097Z,25.40
2022-07-29T10:28:50.861Z,25.30
2022-07-29T10:32:14.506Z,25.50
2022-07-29T10:35:13.432Z,25.70
2022-07-29T10:38:12.431Z,26.10
2022-07-29T10:41:36.299Z,26.40
2022-07-29T10:44:28.283Z,26.50
2022-07-29T10:47:27.479Z,26.70
2022-07-29T10:50:12.786Z,26.90
2022-07-29T10:53:18.799Z,26.70
2022-07-29T10:56:06.417Z,26.80
2022-07-29T10:59:32.219Z,26.40
2022-07-29T11:02:46.427Z,26.30
2022-07-29T11:05:56.023Z,26.10
2022-07-29T11:08:37.871Z,26.00
2022-07-29T11:11:29.871Z,25.60
2022-07-29T11:14:12.154Z,25.20
2022-07-29T11:17:20.434Z,24.90
2022-07-29T11:20:37.811Z,25.00
2022-07-29T11:23:33.881Z,25.00
2022-07-29T11:26:26.125Z,25.30
2022-07-29T11:29:40.642Z,25.40
2022-07-29T11:32:29.330Z,25.90
2022-07-29T11:35:17.194Z,26.10
2022-07-29T11:38:23.368Z,26.10
2022-07-29T11:41:31.772Z,26.10
2022-07-29T11:44:18.003Z,25.90
2022-07-29T11:47:00.356Z,25.80
2022-07-29T11:49:48.181Z,26.00
2022-07-29T11:55:56.462Z,27.00
2022-07-29T11:58:40.398Z,27.60
2022-07-29T12:01:25.202Z,27.90
2022-07-29T12:04:29.803Z,27.80
2022-07-29T12:07:15.303Z,27.80
2022-07-29T12:09:57.520Z,27.90
2022-07-29T12:12:40.179Z,27.70
2022-07-29T12:15:47.140Z,27.40
2022-07-29T12:18:29.331Z,26.90
2022-07-29T12:21:12.562Z,26.80
2022-07-29T12:23:55.877Z,27.10
2022-07-29T12:27:09.982Z,27.40
2022-07-29T12:29:58.291Z,27.80
2022-07-29T12:32:45.881Z,28.10
2022-07-29T12:35:28.102Z,28.00
2022-07-29T12:38:29.917Z,27.40
2022-07-29T12:41:11.875Z,26.90
2022-07-29T12:43:56.435Z,26.40
2022-07-29T12:46:38.696Z,26.20
2022-07-29T12:49:43.972Z,26.00
2022-07-29T12:52:34.121Z,26.00
2022-07-29T12:55:16.020Z,26.10
2022-07-29T12:57:57.878Z,26.40
2022-07-29T13:01:05.846Z,26.30
2022-07-29T13:04:01.502Z,26.40
2022-07-29T13:06:45.975Z,26.40
2022-07-29T13:09:48.431Z,26.30
2022-07-29T13:13:03.228Z,26.70
2022-07-29T13:15:48.838Z,26.90
2022-07-29T13:18:38.557Z,27.20
2022-07-29T13:21:20.379Z,27.40
2022-07-29T13:24:22.173Z,27.80
2022-07-29T13:27:05.658Z,28.30
2022-07-29T13:29:47.786Z,28.10
2022-07-29T13:32:31.131Z,27.70
2022-07-29T13:35:32.871Z,27.50
2022-07-29T13:38:14.731Z,27.10
2022-07-29T13:40:56.575Z,26.80
2022-07-29T13:43:38.413Z,26.70
2022-07-29T13:46:40.251Z,26.70
2022-07-29T13:49:22.214Z,26.50
2022-07-29T13:52:04.438Z,26.40
2022-07-29T13:54:46.701Z,25.80
2022-07-29T13:57:48.620Z,25.50
2022-07-29T14:00:30.612Z,25.60
2022-07-29T14:03:12.522Z,25.90
2022-07-29T14:05:54.339Z,26.20
2022-07-29T14:08:56.114Z,26.60
2022-07-29T14:11:39.687Z,26.30
2022-07-29T14:14:22.068Z,26.20
2022-07-29T14:17:04.403Z,26.00
2022-07-29T14:20:06.457Z,26.00
2022-07-29T14:22:48.291Z,25.40
2022-07-29T14:25:30.122Z,25.40
2022-07-29T14:28:11.983Z,25.40
2022-07-29T14:31:16.993Z,25.30
2022-07-29T14:34:02.637Z,25.40
2022-07-29T14:36:44.771Z,25.60
2022-07-29T14:39:26.574Z,25.70
2022-07-29T14:42:33.788Z,25.60
2022-07-29T14:45:15.624Z,25.40
2022-07-29T14:47:58.280Z,25.00
2022-07-29T14:50:40.178Z,25.00
2022-07-29T14:53:41.970Z,25.00
2022-07-29T14:56:46.631Z,24.90
2022-07-29T14:59:26.863Z,24.70
2022-07-29T15:02:08.753Z,24.60
2022-07-29T15:05:10.499Z,24.50
2022-07-29T15:07:52.333Z,24.80
2022-07-29T15:10:34.174Z,25.00
2022-07-29T15:13:15.985Z,25.10
2022-07-29T15:16:17.862Z,25.10
2022-07-29T15:19:01.166Z,25.10
2022-07-29T15:21:48.513Z,24.90
2022-07-29T15:24:31.120Z,25.00
2022-07-29T15:27:32.830Z,25.10
2022-07-29T15:30:32.529Z,25.20
2022-07-29T15:33:15.496Z,25.00
2022-07-29T15:36:01.981Z,25.00
2022-07-29T15:39:03.755Z,25.10
2022-07-29T15:41:45.648Z,25.10
2022-07-29T15:44:27.533Z,25.00
2022-07-29T15:47:09.542Z,25.00
2022-07-29T15:50:15.798Z,25.00
2022-07-29T15:52:57.622Z,25.10
2022-07-29T15:55:39.483Z,24.80
2022-07-29T15:58:21.383Z,24.80
2022-07-29T16:01:23.317Z,24.70
2022-07-29T16:04:05.197Z,24.70
2022-07-29T16:06:47.580Z,24.40
2022-07-29T16:09:29.457Z,24.30
2022-07-29T16:12:31.183Z,24.10
2022-07-29T16:15:13.126Z,24.00
2022-07-29T16:17:55.021Z,23.90
2022-07-29T16:20:37.531Z,23.80
2022-07-29T16:23:39.673Z,23.70
2022-07-29T16:26:21.523Z,23.80
2022-07-29T16:29:04.377Z,23.70
2022-07-29T16:31:46.241Z,23.70
2022-07-29T16:34:48.015Z,23.60
2022-07-29T16:37:37.084Z,23.70
2022-07-29T16:40:18.888Z,23.80
2022-07-29T16:43:00.711Z,23.70
2022-07-29T16:46:02.442Z,23.70
2022-07-29T16:48:44.844Z,23.60
2022-07-29T16:51:27.280Z,23.50
2022-07-29T16:54:10.699Z,23.50
2022-07-29T16:57:12.450Z,23.50
2022-07-29T16:59:54.265Z,23.50
2022-07-29T17:02:37.397Z,23.40
2022-07-29T17:05:20.387Z,23.40
2022-07-29T17:08:22.802Z,23.40
2022-07-29T17:11:04.595Z,23.40
2022-07-29T17:13:46.369Z,23.40
2022-07-29T17:16:29.038Z,23.30
2022-07-29T17:19:31.867Z,23.40
2022-07-29T17:22:19.093Z,23.40
2022-07-29T17:25:01.400Z,23.30
2022-07-29T17:27:43.214Z,23.30
2022-07-29T17:30:44.940Z,23.30
2022-07-29T17:33:26.774Z,23.40
2022-07-29T17:36:23.619Z,23.40
2022-07-29T17:39:07.619Z,23.40
2022-07-29T17:42:10.514Z,23.30
2022-07-29T17:44:52.298Z,23.20
2022-07-29T17:47:34.185Z,23.10
2022-07-29T17:50:16.660Z,23.10
2022-07-29T17:53:18.366Z,23.00
2022-07-29T17:56:00.518Z,23.00
2022-07-29T17:58:43.153Z,23.00
2022-07-29T18:01:25.005Z,22.90
2022-07-29T18:04:26.794Z,22.80
2022-07-29T18:07:08.978Z,22.70
2022-07-29T18:09:53.280Z,22.70
2022-07-29T18:12:36.886Z,22.70
2022-07-29T18:15:39.101Z,22.60
2022-07-29T18:18:20.941Z,22.60
2022-07-29T18:21:02.936Z,22.50
2022-07-29T18:23:44.829Z,22.40
2022-07-29T18:26:46.587Z,22.30
2022-07-29T18:29:30.331Z,22.20
2022-07-29T18:32:12.172Z,22.10
2022-07-29T18:34:54.040Z,22.10
2022-07-29T18:38:01.419Z,22.10
2022-07-29T18:40:45.779Z,21.90
2022-07-29T18:43:27.891Z,21.80
2022-07-29T18:46:09.726Z,21.70
2022-07-29T18:49:12.215Z,21.70
2022-07-29T18:51:54.072Z,21.60
2022-07-29T18:54:35.829Z,21.60
2022-07-29T18:57:56.343Z,21.50
2022-07-29T19:00:39.409Z,21.40
2022-07-29T19:03:21.212Z,21.40
2022-07-29T19:06:03.080Z,21.30
2022-07-29T19:08:46.080Z,21.20
2022-07-29T19:11:47.798Z,21.30
2022-07-29T19:14:29.586Z,21.20
2022-07-29T19:17:11.340Z,21.10
2022-07-29T19:19:53.926Z,21.00
2022-07-29T19:22:55.660Z,21.00
2022-07-29T19:25:37.590Z,21.00
2022-07-29T19:28:35.674Z,20.90
2022-07-29T19:31:17.496Z,20.80
2022-07-29T19:34:19.388Z,20.70
2022-07-29T19:37:01.539Z,20.70
2022-07-29T19:39:43.593Z,20.70
2022-07-29T19:42:25.439Z,20.70
2022-07-29T19:45:27.412Z,20.50
2022-07-29T19:48:09.227Z,20.50
2022-07-29T19:50:51.000Z,20.50
2022-07-29T19:53:33.373Z,20.50
2022-07-29T19:56:35.330Z,20.40
2022-07-29T19:59:23.857Z,20.40
2022-07-29T20:02:07.863Z,20.40
2022-07-29T20:04:49.735Z,20.30
2022-07-29T20:07:51.756Z,20.30
2022-07-29T20:10:33.962Z,20.20
2022-07-29T20:13:15.779Z,20.20
2022-07-29T20:15:57.919Z,20.20
2022-07-29T20:18:42.357Z,20.20
2022-07-29T20:21:26.754Z,20.10
2022-07-29T20:24:28.675Z,20.00
2022-07-29T20:27:13.435Z,20.00
2022-07-29T20:29:55.657Z,19.90
2022-07-29T20:32:37.463Z,19.90
2022-07-29T20:35:40.870Z,19.80
2022-07-29T20:38:22.773Z,19.70
2022-07-29T20:41:04.916Z,19.70
2022-07-29T20:43:48.368Z,19.70
2022-07-29T20:46:50.282Z,19.60
2022-07-29T20:49:32.158Z,19.70
2022-07-29T20:52:14.070Z,19.60
2022-07-29T20:54:56.297Z,19.60
2022-07-29T20:57:58.017Z,19.50
2022-07-29T21:00:39.961Z,19.50
2022-07-29T21:03:22.318Z,19.50
2022-07-29T21:06:04.269Z,19.50
2022-07-29T21:09:06.003Z,19.40
2022-07-29T21:11:48.042Z,19.40
2022-07-29T21:14:36.118Z,19.30
2022-07-29T21:17:21.276Z,19.30
2022-07-29T21:20:24.461Z,19.30
2022-07-29T21:23:07.723Z,19.20
2022-07-29T21:25:49.815Z,19.20
2022-07-29T21:28:40.044Z,19.20
2022-07-29T21:31:42.595Z,19.20
2022-07-29T21:34:24.552Z,19.20
2022-07-29T21:37:06.991Z,19.20
2022-07-29T21:39:50.883Z,19.20
2022-07-29T21:42:52.605Z,19.20
2022-07-29T21:45:34.437Z,19.20
2022-07-29T21:48:20.481Z,19.30
2022-07-29T21:51:02.284Z,19.30
2022-07-29T21:54:04.242Z,19.20
2022-07-29T21:56:51.123Z,19.20
2022-07-29T21:59:33.267Z,19.20
2022-07-29T22:02:15.062Z,19.10
2022-07-29T22:05:17.047Z,19.10
2022-07-29T22:07:59.319Z,19.10
2022-07-29T22:10:41.135Z,19.00
2022-07-29T22:13:22.956Z,18.90
2022-07-29T22:16:24.770Z,18.90
2022-07-29T22:19:06.718Z,18.70
2022-07-29T22:21:48.502Z,18.80
2022-07-29T22:24:30.780Z,18.70
2022-07-29T22:27:32.710Z,18.80
2022-07-29T22:30:15.353Z,18.80
2022-07-29T22:32:57.125Z,18.80
2022-07-29T22:35:38.922Z,18.90
2022-07-29T22:38:40.638Z,18.80
2022-07-29T22:41:22.993Z,18.80
2022-07-29T22:44:05.224Z,18.70
2022-07-29T22:46:47.374Z,18.60
2022-07-29T22:49:49.227Z,18.60
2022-07-29T22:52:31.121Z,18.60
2022-07-29T22:55:13.557Z,18.60
2022-07-29T22:57:55.355Z,18.60
2022-07-29T23:00:57.236Z,18.60
2022-07-29T23:03:39.459Z,18.60
2022-07-29T23:06:21.367Z,18.60
2022-07-29T23:09:03.593Z,18.60
2022-07-29T23:12:05.436Z,18.60
2022-07-29T23:14:47.779Z,18.70
2022-07-29T23:17:29.583Z,18.70
2022-07-29T23:20:11.615Z,18.60
2022-07-29T23:23:16.798Z,18.70
2022-07-29T23:25:58.649Z,18.60
2022-07-29T23:28:40.459Z,18.50
2022-07-29T23:31:22.297Z,18.60
2022-07-29T23:34:24.034Z,18.60
2022-07-29T23:37:06.021Z,18.60
2022-07-29T23:39:47.882Z,18.60
2022-07-29T23:42:29.711Z,18.60
2022-07-29T23:45:42.869Z,18.50
2022-07-29T23:48:27.151Z,18.50
2022-07-29T23:51:09.002Z,18.40
2022-07-29T23:53:53.384Z,18.30
2022-07-29T23:56:57.815Z,18.30
2022-07-29T23:59:39.981Z,18.20
